Time;durP1;ratioP1;P1;durP2;ratioP2;P2;SDS_P1;SDS_P2;PMS_P1;PMS_P2;Temp;Humidity;BMP_temperature;BMP_pressure;BME280_temperature;BME280_humidity;BME280_pressure;Samples;Min_cycle;Max_cycle;Signal;HPM_P1;HPM_P2
2022/04/29 00:07:47;;;;;;;46.20;31.70;;;;;;;5.60;62.80;100551.88;438627;1267;141734;-51
2022/04/29 00:17:53;;;;;;;47.70;31.10;;;;;;;5.54;63.25;100549.78;431384;1267;143003;-53
2022/04/29 00:27:59;;;;;;;49.60;32.80;;;;;;;5.60;63.68;100545.59;442139;1267;142960;-55
2022/04/29 00:38:05;;;;;;;46.20;30.10;;;;;;;5.76;64.24;100547.26;447889;1267;143597;-56
2022/04/29 00:48:11;;;;;;;41.80;31.80;;;;;;;5.95;64.50;100542.38;447900;1266;143437;-55
2022/04/29 00:58:21;;;;;;;48.10;31.60;;;;;;;6.06;64.47;100530.08;447130;1267;141989;-56
2022/04/29 01:08:27;;;;;;;46.30;31.60;;;;;;;6.14;64.75;100528.95;447962;1267;146115;-57
2022/04/29 01:18:33;;;;;;;47.60;30.10;;;;;;;6.10;64.67;100526.84;447776;1268;142362;-56
2022/04/29 01:28:40;;;;;;;51.60;31.20;;;;;;;6.04;64.83;100523.17;447074;1267;142774;-57
2022/04/29 01:38:45;;;;;;;48.50;33.60;;;;;;;6.05;65.32;100520.55;447884;1267;142084;-56
2022/04/29 01:48:51;;;;;;;45.40;34.30;;;;;;;5.96;65.36;100515.05;443356;1267;144551;-55
2022/04/29 01:58:57;;;;;;;52.10;34.40;;;;;;;5.73;65.57;100512.25;443124;1267;143504;-57
2022/04/29 02:09:03;;;;;;;51.10;35.70;;;;;;;5.49;65.99;100508.92;447876;1267;142287;-56
2022/04/29 02:19:09;;;;;;;53.70;35.50;;;;;;;5.37;66.19;100508.21;447109;1265;142612;-57
2022/04/29 02:29:15;;;;;;;46.90;33.30;;;;;;;5.20;66.63;100502.92;447893;1267;143548;-56
2022/04/29 02:39:21;;;;;;;54.50;36.70;;;;;;;5.05;66.57;100500.73;447787;1267;142225;-57
2022/04/29 02:49:27;;;;;;;53.40;36.30;;;;;;;4.88;66.86;100499.95;447143;1267;143227;-56
2022/04/29 02:59:33;;;;;;;51.80;36.40;;;;;;;4.79;67.33;100492.89;447827;1267;142740;-57
2022/04/29 03:09:39;;;;;;;51.70;37.80;;;;;;;4.79;67.61;100493.23;447922;1266;142006;-57
2022/04/29 03:19:45;;;;;;;55.50;39.30;;;;;;;4.91;67.74;100501.95;447196;1266;144028;-58
2022/04/29 03:29:51;;;;;;;48.10;34.20;;;;;;;5.05;68.11;100508.73;447661;1269;142152;-57
2022/04/29 03:39:57;;;;;;;47.10;33.20;;;;;;;5.09;68.18;100509.33;447134;1267;143089;-56
2022/04/29 03:50:03;;;;;;;50.90;32.20;;;;;;;5.09;68.53;100509.13;447816;1267;142698;-55
2022/04/29 04:00:14;;;;;;;52.60;38.40;;;;;;;5.30;68.77;100511.71;447279;1268;142222;-57
2022/04/29 04:10:19;;;;;;;56.50;36.10;;;;;;;5.56;68.94;100508.38;446828;1269;141586;-57
2022/04/29 04:20:25;;;;;;;50.40;35.60;;;;;;;6.04;68.39;100505.95;447784;1267;141872;-56
2022/04/29 04:30:31;;;;;;;52.50;40.90;;;;;;;6.71;67.92;100509.60;447555;1267;143917;-55
2022/04/29 04:40:37;;;;;;;44.70;32.80;;;;;;;7.29;67.20;100506.05;447067;1267;142540;-57
2022/04/29 04:50:43;;;;;;;35.70;30.20;;;;;;;8.08;66.19;100506.83;447848;1267;141796;-57
2022/04/29 05:00:50;;;;;;;35.80;28.90;;;;;;;8.77;65.05;100515.79;447034;1267;198239;-54
2022/04/29 05:10:56;;;;;;;37.30;26.90;;;;;;;14.47;62.81;100511.92;445100;1268;142414;-55
2022/04/29 05:21:02;;;;;;;34.60;28.50;;;;;;;21.71;51.36;100511.08;445009;1267;142899;-57
2022/04/29 05:31:08;;;;;;;30.10;26.20;;;;;;;25.46;43.92;100513.76;447135;1267;142094;-58
2022/04/29 05:51:37;;;;;;;31.30;22.70;;;;;;;32.26;33.61;100511.04;433294;1268;141866;-58
2022/04/29 06:01:43;;;;;;;29.70;22.80;;;;;;;34.59;29.28;100506.53;446899;1268;145997;-62
2022/04/29 06:11:49;;;;;;;21.80;19.10;;;;;;;35.93;26.31;100515.31;447916;1268;153277;-62
2022/04/29 06:21:55;;;;;;;19.20;15.70;;;;;;;38.13;23.99;100513.15;446790;1269;142197;-64
2022/04/29 06:32:01;;;;;;;17.20;15.80;;;;;;;39.25;21.33;100517.76;447888;1267;142357;-62
2022/04/29 06:42:08;;;;;;;19.00;17.10;;;;;;;39.16;20.00;100521.23;447851;1268;142868;-62
2022/04/29 06:52:14;;;;;;;9.10;8.00;;;;;;;40.41;18.55;100521.69;446768;1270;142173;-64
2022/04/29 07:02:20;;;;;;;9.90;8.90;;;;;;;40.75;17.36;100527.33;448038;1268;143006;-62
2022/04/29 07:12:26;;;;;;;8.90;7.50;;;;;;;41.52;15.96;100533.25;448038;1267;142933;-63
2022/04/29 07:22:32;;;;;;;6.20;5.50;;;;;;;41.10;15.34;100537.66;447265;1267;143092;-65
2022/04/29 07:32:38;;;;;;;9.00;5.70;;;;;;;40.52;15.04;100539.48;447843;1267;141953;-62
2022/04/29 07:42:44;;;;;;;6.00;5.30;;;;;;;41.75;14.42;100538.61;448002;1267;142176;-63
2022/04/29 07:52:50;;;;;;;5.60;4.20;;;;;;;42.55;13.83;100539.13;447998;1268;142148;-60
2022/04/29 08:02:56;;;;;;;5.40;4.60;;;;;;;42.20;13.60;100541.42;448050;1268;141927;-61
2022/04/29 08:13:03;;;;;;;10.90;4.30;;;;;;;41.92;13.44;100542.48;447162;1267;142566;-63
2022/04/29 08:23:10;;;;;;;11.60;5.10;;;;;;;33.00;15.66;100533.83;448111;1267;142548;-67
2022/04/29 08:33:16;;;;;;;8.40;4.60;;;;;;;26.51;19.11;100535.48;447986;1267;143717;-64
2022/04/29 08:43:21;;;;;;;;;;;;;;;22.66;22.27;100540.20;447250;1267;141564;-63
2022/04/29 08:53:27;;;;;;;7.40;3.80;;;;;;;20.21;24.37;100540.80;448240;1267;128787;-63
2022/04/29 09:03:34;;;;;;;6.00;4.40;;;;;;;19.81;25.77;100536.46;447970;1267;143094;-68
2022/04/29 09:13:42;;;;;;;6.10;3.40;;;;;;;19.57;26.44;100530.61;446865;1269;142179;-63
2022/04/29 09:23:55;;;;;;;4.20;3.50;;;;;;;18.92;27.17;100534.88;448018;1267;142817;-70
2022/04/29 09:34:01;;;;;;;5.30;3.10;;;;;;;18.75;27.49;100526.31;447230;1267;143116;-72
2022/04/29 09:44:07;;;;;;;4.10;3.10;;;;;;;18.31;27.73;100522.83;447992;1267;142056;-63
2022/04/29 09:54:16;;;;;;;6.80;3.60;;;;;;;18.04;27.86;100522.84;447946;1267;140681;-62
2022/04/29 10:04:23;;;;;;;6.20;2.60;;;;;;;17.38;28.12;100520.20;447011;1267;142782;-62
2022/04/29 10:14:33;;;;;;;3.00;2.70;;;;;;;17.48;28.61;100512.88;447924;1267;141275;-62
2022/04/29 10:24:40;;;;;;;2.80;2.10;;;;;;;17.32;28.42;100511.11;447941;1267;142083;-62
2022/04/29 10:34:49;;;;;;;2.80;1.80;;;;;;;17.03;27.70;100510.30;447195;1267;142774;-63
2022/04/29 10:45:05;;;;;;;3.50;1.70;;;;;;;16.44;27.26;100498.80;447995;1267;154420;-63
2022/04/29 10:55:24;;;;;;;1.80;1.30;;;;;;;16.36;26.66;100494.23;447243;1267;142788;-63
2022/04/29 11:05:37;;;;;;;5.40;1.70;;;;;;;16.17;27.30;100480.98;447901;1266;143566;-62
2022/04/29 11:15:45;;;;;;;2.10;1.30;;;;;;;16.10;26.71;100479.87;447967;1267;141876;-68
2022/04/29 11:25:54;;;;;;;12.80;2.50;;;;;;;16.04;26.55;100476.41;447974;1265;142388;-62
2022/04/29 11:36:06;;;;;;;4.00;1.80;;;;;;;15.82;26.70;100468.81;447992;1267;142089;-62
2022/04/29 11:46:12;;;;;;;5.20;2.00;;;;;;;15.55;26.72;100465.44;447100;1268;144706;-62
2022/04/29 11:56:18;;;;;;;4.00;1.20;;;;;;;15.61;27.19;100457.02;447818;1267;202560;-62
2022/04/29 12:06:23;;;;;;;10.30;2.30;;;;;;;15.67;26.67;100458.20;447961;1265;141381;-63
2022/04/29 12:16:29;;;;;;;7.30;1.70;;;;;;;15.43;26.55;100453.21;447196;1267;142515;-63
2022/04/29 12:26:35;;;;;;;1.10;1.00;;;;;;;15.32;26.40;100444.28;447996;1266;141410;-61
2022/04/29 12:36:50;;;;;;;8.90;1.80;;;;;;;15.04;26.35;100438.42;447733;1269;141900;-63
2022/04/29 12:46:55;;;;;;;4.30;1.30;;;;;;;15.23;26.31;100424.59;447946;1267;141660;-62
2022/04/29 12:57:02;;;;;;;3.30;1.10;;;;;;;15.22;26.10;100410.92;447953;1267;142915;-59
2022/04/29 13:07:08;;;;;;;4.30;1.30;;;;;;;15.25;25.67;100410.73;447170;1266;141811;-60
2022/04/29 13:17:14;;;;;;;2.10;1.40;;;;;;;15.20;26.03;100407.53;447986;1266;140905;-61
2022/04/29 13:27:21;;;;;;;2.60;1.10;;;;;;;15.20;26.26;100399.58;447733;1269;142163;-64
2022/04/29 13:37:27;;;;;;;1.40;1.10;;;;;;;15.16;26.70;100384.19;447238;1267;141554;-64
2022/04/29 13:47:34;;;;;;;2.40;1.50;;;;;;;15.27;26.70;100383.25;447971;1267;142242;-64
2022/04/29 13:57:40;;;;;;;1.60;1.00;;;;;;;15.23;26.47;100374.50;447931;1267;141952;-60
2022/04/29 14:07:48;;;;;;;5.20;1.40;;;;;;;15.24;26.45;100364.88;447108;1267;141404;-59
2022/04/29 14:17:53;;;;;;;2.70;1.10;;;;;;;15.25;26.26;100358.52;447881;1266;141850;-61
2022/04/29 14:27:59;;;;;;;8.00;1.70;;;;;;;15.22;25.89;100351.49;447139;1268;141998;-61
2022/04/29 14:38:06;;;;;;;5.00;1.20;;;;;;;15.23;26.95;100347.55;447930;1267;142230;-61
2022/04/29 14:48:12;;;;;;;2.70;1.10;;;;;;;15.29;27.00;100345.54;447855;1267;141693;-62
2022/04/29 14:58:17;;;;;;;4.60;1.50;;;;;;;15.17;27.28;100338.79;447073;1267;141314;-61
2022/04/29 15:08:23;;;;;;;4.00;1.80;;;;;;;15.19;27.46;100327.20;447960;1267;143082;-62
2022/04/29 15:18:29;;;;;;;1.90;1.60;;;;;;;15.11;27.72;100318.79;447758;1266;142459;-61
2022/04/29 15:28:35;;;;;;;4.50;2.40;;;;;;;14.95;27.78;100321.82;447222;1267;141965;-65
2022/04/29 15:38:46;;;;;;;3.30;2.70;;;;;;;14.87;28.17;100316.41;447905;1267;142462;-65
2022/04/29 15:48:52;;;;;;;8.30;2.30;;;;;;;14.78;28.93;100318.44;446924;1267;143463;-61
2022/04/29 15:58:58;;;;;;;3.30;2.10;;;;;;;14.64;29.43;100314.97;447845;1267;142488;-62
2022/04/29 16:09:04;;;;;;;3.50;1.50;;;;;;;14.61;29.84;100323.63;447668;1269;145501;-61
2022/04/29 16:29:33;;;;;;;9.10;2.20;;;;;;;14.37;29.85;100320.81;447937;1268;142450;-61
2022/04/29 16:39:39;;;;;;;2.60;1.90;;;;;;;14.19;29.68;100316.08;447994;1267;142363;-61
2022/04/29 16:49:45;;;;;;;10.10;5.70;;;;;;;14.02;30.13;100321.45;447241;1268;140860;-60
2022/04/29 16:59:51;;;;;;;6.80;2.10;;;;;;;13.85;30.32;100327.09;447986;1268;142392;-66
2022/04/29 17:09:57;;;;;;;4.30;2.10;;;;;;;14.09;30.36;100333.98;447195;1267;144749;-63
2022/04/29 17:20:03;;;;;;;4.80;1.90;;;;;;;14.08;30.38;100333.36;447975;1267;142587;-63
2022/04/29 17:30:11;;;;;;;10.70;3.30;;;;;;;13.53;30.85;100336.36;447839;1267;142812;-64
2022/04/29 17:50:41;;;;;;;6.20;2.50;;;;;;;12.64;31.79;100347.30;447853;1265;141722;-63
2022/04/29 18:00:47;;;;;;;6.50;2.10;;;;;;;12.26;32.23;100359.38;447738;1267;145373;-62
2022/04/29 18:10:55;;;;;;;8.70;3.20;;;;;;;11.89;32.76;100364.08;447684;1267;211525;-63
2022/04/29 18:21:01;;;;;;;5.40;1.90;;;;;;;11.59;33.11;100377.88;448012;1267;141499;-62
2022/04/29 18:31:08;;;;;;;16.00;4.00;;;;;;;11.23;34.12;100386.51;447155;1268;143077;-61
2022/04/29 18:41:14;;;;;;;14.10;4.80;;;;;;;10.73;35.73;100393.80;447926;1267;144769;-61
2022/04/29 18:51:20;;;;;;;20.00;4.30;;;;;;;10.22;37.59;100397.56;447802;1269;141941;-62
2022/04/29 19:01:25;;;;;;;13.20;3.80;;;;;;;9.81;39.19;100405.66;447236;1268;142755;-63
2022/04/29 19:11:32;;;;;;;11.70;2.30;;;;;;;9.40;40.27;100407.06;448013;1268;142673;-61
2022/04/29 19:21:38;;;;;;;7.70;2.10;;;;;;;9.04;41.59;100411.65;447985;1268;141880;-62
2022/04/29 19:31:44;;;;;;;14.50;3.90;;;;;;;8.63;43.14;100413.38;447184;1267;143710;-63
2022/04/29 19:41:51;;;;;;;18.00;5.00;;;;;;;8.30;44.33;100406.33;447986;1268;142123;-63
2022/04/29 19:51:57;;;;;;;36.10;9.90;;;;;;;7.96;45.45;100400.41;447319;1267;142158;-62
2022/04/29 20:12:26;;;;;;;31.10;8.50;;;;;;;7.38;47.52;100388.87;444663;1268;141854;-62
2022/04/29 20:22:32;;;;;;;26.00;7.80;;;;;;;7.12;48.41;100387.90;447191;1267;141161;-64
2022/04/29 20:32:38;;;;;;;28.00;9.50;;;;;;;6.86;49.14;100395.45;447959;1268;141982;-61
2022/04/29 20:53:14;;;;;;;21.80;9.00;;;;;;;6.33;51.48;100404.73;447954;1268;141855;-62
2022/04/29 21:03:20;;;;;;;20.70;9.10;;;;;;;6.07;52.15;100408.02;448064;1267;141491;-63
2022/04/29 21:13:27;;;;;;;24.60;9.30;;;;;;;5.85;52.72;100404.34;447162;1267;141088;-62
2022/04/29 21:23:33;;;;;;;24.70;10.80;;;;;;;5.64;53.19;100407.23;447930;1268;142850;-62
2022/04/29 21:33:39;;;;;;;14.40;8.40;;;;;;;5.41;54.09;100411.72;447822;1268;142684;-64
2022/04/29 21:43:45;;;;;;;26.50;10.20;;;;;;;5.20;54.59;100414.06;446661;1268;142230;-64
2022/04/29 21:53:51;;;;;;;27.20;9.50;;;;;;;5.03;55.57;100415.39;447909;1267;142128;-62
2022/04/29 22:03:56;;;;;;;17.90;8.90;;;;;;;4.86;56.40;100411.72;446868;1268;142171;-62
2022/04/29 22:14:02;;;;;;;21.20;10.30;;;;;;;4.69;56.46;100405.91;447909;1267;141994;-63
2022/04/29 22:24:10;;;;;;;17.70;9.70;;;;;;;4.52;56.84;100402.88;448031;1267;142034;-64
2022/04/29 22:34:16;;;;;;;27.60;10.40;;;;;;;4.32;57.66;100405.28;446989;1268;142517;-64
2022/04/29 22:44:21;;;;;;;20.10;10.40;;;;;;;4.15;57.88;100404.14;447462;1268;142225;-64
2022/04/29 22:54:27;;;;;;;33.70;19.20;;;;;;;4.03;58.34;100400.27;447956;1267;143862;-63
2022/04/29 23:04:33;;;;;;;33.20;16.60;;;;;;;3.92;59.11;100396.20;447165;1267;143124;-62
2022/04/29 23:14:41;;;;;;;32.80;18.70;;;;;;;3.84;59.33;100394.30;447997;1267;142336;-61
2022/04/29 23:24:47;;;;;;;35.80;20.20;;;;;;;3.71;59.81;100391.30;447995;1267;142623;-63
2022/04/29 23:34:53;;;;;;;36.40;23.80;;;;;;;3.59;60.16;100383.96;448000;1267;141584;-64
2022/04/29 23:44:59;;;;;;;47.50;28.10;;;;;;;3.48;60.47;100385.05;448029;1266;144165;-62
2022/04/29 23:55:05;;;;;;;42.20;24.30;;;;;;;3.35;60.93;100378.09;447069;1267;239570;-62
